Terminal Aerodrome Forecast
Issued by NWS Twin Cities, MN

Home | Current Version | Previous Version | Text Only | Print | Product List | Glossary Off
Versions: 1 2 3 4 5 6 7 8 9 10 11 12 13 14 15 16

000
FTUS43 KMPX 190500
TAFSTC
TAF
KSTC 190522Z 1906/2006 21010KT 3SM -SN SCT012 OVC030
      TEMPO 1906/1908 1 1/2SM -SN BKN012
     FM190800 27012G18KT 6SM -SN BKN012 OVC025
     FM191000 30020G30KT 6SM -SN BLSN OVC020
     FM191800 30020G32KT P6SM BKN030
     FM192200 28014KT P6SM BKN035=

USA.gov is the U.S. government's official web portal to all federal, state and local government web resources and services.